Time;durP1;ratioP1;P1;durP2;ratioP2;P2;SDS_P1;SDS_P2;PMS_P1;PMS_P2;Temp;Humidity;BMP_temperature;BMP_pressure;BME280_temperature;BME280_humidity;BME280_pressure;Samples;Min_cycle;Max_cycle;Signal;HPM_P1;HPM_P2
2023/01/27 00:01:04;;;;;;;10.53;3.10;;;6.60;99.90;;;;;;5054032;28;20173;-58
2023/01/27 00:03:29;;;;;;;7.00;2.90;;;6.30;99.90;;;;;;5053763;28;20226;-58
2023/01/27 00:05:55;;;;;;;7.43;2.47;;;7.10;99.90;;;;;;5053742;28;20498;-58
2023/01/27 00:08:21;;;;;;;8.23;3.20;;;;;;;;;;5053752;28;20260;-58
2023/01/27 00:13:25;;;;;;;9.57;2.97;;;6.20;99.90;;;;;;5053734;28;20193;-58
2023/01/27 00:13:32;;;;;;;8.30;2.67;;;6.20;99.90;;;;;;5053731;28;20242;-58
2023/01/27 00:15:58;;;;;;;7.33;3.00;;;6.20;99.90;;;;;;5053610;28;20314;-58
2023/01/27 00:18:24;;;;;;;12.87;3.23;;;6.20;99.90;;;;;;5053646;28;20662;-58
2023/01/27 00:26:19;;;;;;;8.97;2.97;;;6.30;99.90;;;;;;5053668;28;20184;-58
2023/01/27 00:28:46;;;;;;;11.50;3.40;;;6.20;99.90;;;;;;5053308;28;20173;-58
2023/01/27 00:34:00;;;;;;;10.57;3.10;;;6.20;99.90;;;;;;5053237;28;20224;-58
2023/01/27 00:36:29;;;;;;;8.47;2.63;;;6.00;99.90;;;;;;5053300;28;20177;-58
2023/01/27 00:38:56;;;;;;;8.20;2.83;;;6.20;99.90;;;;;;5053137;28;20222;-58
2023/01/27 00:41:22;;;;;;;8.13;2.70;;;6.20;99.90;;;;;;5053152;28;20636;-58
2023/01/27 00:43:50;;;;;;;10.47;3.00;;;6.20;99.90;;;;;;5053125;28;20178;-58
2023/01/27 00:46:17;;;;;;;8.03;2.60;;;6.20;99.90;;;;;;5053209;28;20181;-58
2023/01/27 00:48:43;;;;;;;10.70;2.93;;;6.20;99.90;;;;;;5053003;28;20714;-58
2023/01/27 00:51:10;;;;;;;8.33;3.00;;;6.30;99.90;;;;;;5052960;28;20181;-59
2023/01/27 00:53:36;;;;;;;10.47;2.73;;;6.20;99.90;;;;;;5051796;28;20196;-60
2023/01/27 00:56:02;;;;;;;11.03;3.17;;;6.20;99.90;;;;;;5052819;28;20178;-58
2023/01/27 00:58:28;;;;;;;13.20;3.43;;;6.10;99.90;;;;;;5053033;28;20663;-58
2023/01/27 01:00:55;;;;;;;14.50;3.70;;;5.90;99.90;;;;;;5052915;28;20248;-58
2023/01/27 01:03:21;;;;;;;15.63;3.70;;;5.80;99.90;;;;;;5052913;28;20177;-58
2023/01/27 01:05:48;;;;;;;11.57;4.53;;;6.10;99.90;;;;;;5052788;28;20247;-58
2023/01/27 01:08:14;;;;;;;13.13;4.43;;;6.40;99.90;;;;;;5052701;28;20184;-58
2023/01/27 01:10:39;;;;;;;10.67;3.47;;;6.10;99.90;;;;;;5052631;28;20549;-58
2023/01/27 01:13:12;;;;;;;10.03;4.10;;;6.20;99.90;;;;;;5052313;28;20268;-58
2023/01/27 01:15:38;;;;;;;9.77;3.47;;;6.20;99.90;;;;;;5051750;28;20205;-58
2023/01/27 01:18:05;;;;;;;15.33;4.87;;;6.30;99.90;;;;;;5052176;28;20184;-58
2023/01/27 01:20:36;;;;;;;19.33;4.80;;;6.20;99.90;;;;;;5052057;28;20214;-58
2023/01/27 01:23:01;;;;;;;7.33;3.20;;;6.20;99.90;;;;;;5052184;28;20189;-58
2023/01/27 01:25:27;;;;;;;16.50;3.67;;;6.30;99.90;;;;;;5052254;28;20235;-58
2023/01/27 01:27:53;;;;;;;10.27;3.23;;;6.30;99.90;;;;;;5052307;28;20635;-58
2023/01/27 01:30:20;;;;;;;9.47;3.20;;;6.00;99.90;;;;;;5052327;28;20180;-58
2023/01/27 01:32:46;;;;;;;10.67;3.27;;;6.10;99.90;;;;;;5051925;28;20303;-58
2023/01/27 01:35:12;;;;;;;15.50;3.40;;;6.10;99.90;;;;;;5051649;28;20217;-58
2023/01/27 01:37:38;;;;;;;11.67;2.77;;;6.10;99.90;;;;;;5051796;28;20173;-58
2023/01/27 01:40:04;;;;;;;9.83;2.87;;;6.10;99.90;;;;;;5051838;28;20190;-58
2023/01/27 01:42:51;;;;;;;6.70;2.53;;;6.10;99.90;;;;;;5051817;28;20184;-58
2023/01/27 01:45:32;;;;;;;9.30;3.20;;;6.00;99.90;;;;;;5051500;28;20250;-58
2023/01/27 01:48:26;;;;;;;10.57;3.23;;;6.10;99.90;;;;;;5051192;28;20185;-58
2023/01/27 01:51:09;;;;;;;8.10;2.90;;;6.10;99.90;;;;;;5042001;28;20177;-58
2023/01/27 01:53:44;;;;;;;8.90;3.17;;;6.10;99.90;;;;;;5051738;28;20184;-59
2023/01/27 01:56:15;;;;;;;11.50;2.97;;;6.10;99.90;;;;;;5031766;28;20197;-58
2023/01/27 01:58:44;;;;;;;9.73;2.80;;;6.20;99.90;;;;;;5048043;28;20184;-58
2023/01/27 02:01:13;;;;;;;9.93;2.67;;;6.00;99.90;;;;;;5051654;28;20190;-58
2023/01/27 02:03:41;;;;;;;6.43;2.80;;;6.00;99.90;;;;;;5051489;28;20269;-58
2023/01/27 02:06:09;;;;;;;14.50;3.00;;;6.00;99.90;;;;;;5051355;28;20189;-58
2023/01/27 02:08:41;;;;;;;8.13;2.90;;;6.00;99.90;;;;;;5051325;28;20176;-58
2023/01/27 02:11:10;;;;;;;6.80;2.83;;;6.00;99.90;;;;;;5051646;28;20284;-59
2023/01/27 02:13:37;;;;;;;9.73;2.80;;;6.10;99.90;;;;;;5051379;28;20689;-56
2023/01/27 02:16:03;;;;;;;15.33;3.30;;;6.10;99.90;;;;;;5051164;28;20215;-59
2023/01/27 02:18:29;;;;;;;11.40;3.17;;;6.10;99.90;;;;;;5051311;28;20169;-59
2023/01/27 02:20:55;;;;;;;6.07;2.93;;;6.00;99.90;;;;;;5051243;28;20594;-59
2023/01/27 02:23:24;;;;;;;5.67;2.70;;;6.00;99.90;;;;;;5051202;28;20165;-59
2023/01/27 02:26:08;;;;;;;5.83;2.13;;;5.90;99.90;;;;;;5050878;28;20720;-58
2023/01/27 02:28:34;;;;;;;11.33;2.63;;;6.00;99.90;;;;;;5050870;28;20177;-59
2023/01/27 02:31:00;;;;;;;8.73;2.70;;;5.90;99.90;;;;;;5050909;28;20657;-59
2023/01/27 02:33:26;;;;;;;9.73;2.60;;;5.90;99.90;;;;;;5050660;28;20750;-59
2023/01/27 02:36:12;;;;;;;6.53;2.40;;;7.10;99.90;;;;;;5032549;28;20227;-58
2023/01/27 02:39:00;;;;;;;7.03;2.60;;;6.00;99.90;;;;;;5050925;28;20173;-59
2023/01/27 02:41:45;;;;;;;8.47;2.47;;;5.90;99.90;;;;;;5050751;28;20319;-58
2023/01/27 02:44:11;;;;;;;5.80;2.10;;;5.90;99.90;;;;;;5050443;28;20696;-58
2023/01/27 02:46:37;;;;;;;5.57;1.90;;;5.90;99.90;;;;;;5050061;28;20260;-58
2023/01/27 02:49:03;;;;;;;4.73;2.17;;;6.00;99.90;;;;;;5050463;28;20222;-59
2023/01/27 02:51:29;;;;;;;3.57;1.70;;;5.90;99.90;;;;;;5050186;28;20181;-58
2023/01/27 02:53:55;;;;;;;3.27;1.70;;;5.80;99.90;;;;;;5050690;28;20266;-59
2023/01/27 02:56:21;;;;;;;7.43;1.73;;;5.90;99.90;;;;;;5050573;28;20647;-58
2023/01/27 02:58:46;;;;;;;5.70;1.73;;;5.90;99.90;;;;;;5050786;28;20252;-58
2023/01/27 03:01:12;;;;;;;6.10;1.73;;;5.90;99.90;;;;;;5050625;28;20179;-59
2023/01/27 03:03:42;;;;;;;4.73;1.90;;;6.10;99.90;;;;;;5050789;28;20172;-58
2023/01/27 03:06:09;;;;;;;6.30;1.90;;;5.90;99.90;;;;;;5050675;28;20169;-59
2023/01/27 03:08:35;;;;;;;8.30;2.20;;;5.90;99.90;;;;;;5050546;28;20181;-58
2023/01/27 03:11:00;;;;;;;6.53;2.00;;;5.60;99.90;;;;;;5050478;28;20168;-58
2023/01/27 03:13:26;;;;;;;7.33;1.70;;;5.90;99.90;;;;;;5050605;28;20523;-58
2023/01/27 03:18:37;;;;;;;6.43;2.03;;;5.90;99.90;;;;;;5055352;28;20192;-58
2023/01/27 03:21:05;;;;;;;6.67;1.60;;;5.90;99.90;;;;;;5054644;28;20548;-59
2023/01/27 03:23:34;;;;;;;5.27;1.90;;;5.90;99.90;;;;;;5054234;28;20235;-59
2023/01/27 03:26:01;;;;;;;12.00;2.40;;;5.90;99.90;;;;;;5054443;28;20183;-58
2023/01/27 03:28:27;;;;;;;4.83;2.00;;;5.80;99.90;;;;;;5054247;28;20188;-58
2023/01/27 03:31:18;;;;;;;7.97;2.23;;;5.80;99.90;;;;;;5035967;28;20216;-58
2023/01/27 03:33:46;;;;;;;4.77;2.10;;;5.70;99.90;;;;;;5054046;28;20244;-58
2023/01/27 03:47:08;;;;;;;6.03;2.13;;;5.50;99.90;;;;;;5037935;28;20184;-59
2023/01/27 03:49:34;;;;;;;5.80;2.47;;;;;;;;;;5053809;28;20548;-58
2023/01/27 03:52:00;;;;;;;7.17;2.30;;;5.40;99.90;;;;;;5053484;28;20177;-58
2023/01/27 03:54:25;;;;;;;3.30;1.87;;;6.00;99.90;;;;;;5053651;28;20208;-59
2023/01/27 03:56:51;;;;;;;7.07;2.60;;;5.10;99.90;;;;;;5053711;28;20223;-59
2023/01/27 03:59:16;;;;;;;5.50;2.00;;;5.10;99.90;;;;;;5053960;28;20157;-58
2023/01/27 04:01:42;;;;;;;4.80;2.07;;;5.00;99.90;;;;;;5053822;28;20261;-59
2023/01/27 04:06:57;;;;;;;6.17;2.10;;;;;;;;;;5054076;28;20266;-58
2023/01/27 04:09:35;;;;;;;5.57;1.93;;;4.90;99.90;;;;;;5053708;28;20177;-59
2023/01/27 04:12:05;;;;;;;4.10;2.00;;;4.90;99.90;;;;;;5053730;28;20188;-59
2023/01/27 04:14:42;;;;;;;4.97;2.20;;;4.80;99.90;;;;;;5053604;28;20209;-58
2023/01/27 04:17:13;;;;;;;6.77;2.10;;;4.80;99.90;;;;;;5053554;28;20161;-59
2023/01/27 04:19:39;;;;;;;6.87;2.53;;;4.80;99.90;;;;;;5053542;28;20177;-59
2023/01/27 04:22:06;;;;;;;5.87;1.90;;;5.20;99.90;;;;;;5053063;28;20169;-59
2023/01/27 04:24:32;;;;;;;8.77;1.90;;;4.70;99.90;;;;;;5053428;28;20173;-59
2023/01/27 04:27:00;;;;;;;6.13;2.00;;;4.60;99.90;;;;;;5053326;28;20580;-59
2023/01/27 04:29:28;;;;;;;6.03;2.13;;;4.50;99.90;;;;;;5051639;28;20173;-58
2023/01/27 04:31:54;;;;;;;5.73;1.93;;;4.40;99.90;;;;;;5052912;28;20268;-58
2023/01/27 04:34:20;;;;;;;5.07;2.17;;;4.40;99.90;;;;;;5052784;28;20284;-58
2023/01/27 04:36:47;;;;;;;5.30;2.13;;;4.40;99.90;;;;;;5050926;28;20205;-58
2023/01/27 04:39:13;;;;;;;6.80;2.33;;;4.30;99.90;;;;;;5052936;28;20231;-58
2023/01/27 04:41:39;;;;;;;4.37;2.27;;;5.20;99.90;;;;;;5052655;28;20185;-58
2023/01/27 04:44:05;;;;;;;5.30;1.90;;;4.60;99.90;;;;;;5052597;28;20192;-58
2023/01/27 04:46:32;;;;;;;6.10;2.27;;;4.80;99.90;;;;;;5052963;28;20165;-58
2023/01/27 04:48:59;;;;;;;4.63;2.17;;;4.70;99.90;;;;;;5052770;28;20269;-58
2023/01/27 04:51:24;;;;;;;6.87;2.30;;;4.70;99.90;;;;;;5052767;28;20173;-58
2023/01/27 04:53:50;;;;;;;5.53;2.30;;;4.80;99.90;;;;;;5052810;28;20178;-58
2023/01/27 04:56:36;;;;;;;5.73;2.10;;;4.80;99.90;;;;;;5052618;28;20189;-59
2023/01/27 04:59:05;;;;;;;4.80;1.83;;;4.70;99.90;;;;;;5052682;28;20169;-58
2023/01/27 05:01:31;;;;;;;5.60;1.90;;;4.70;99.90;;;;;;5052590;28;20169;-58
2023/01/27 05:03:57;;;;;;;4.83;1.97;;;4.60;99.90;;;;;;5052520;28;20223;-58
2023/01/27 05:06:23;;;;;;;6.30;2.27;;;4.90;99.90;;;;;;5052667;28;20169;-59
2023/01/27 05:08:49;;;;;;;4.90;2.13;;;4.60;99.90;;;;;;5050240;28;20257;-58
2023/01/27 05:11:15;;;;;;;7.00;2.37;;;4.70;99.90;;;;;;5048164;28;20196;-58
2023/01/27 05:13:41;;;;;;;5.77;2.17;;;;;;;;;;5052569;28;20510;-58
2023/01/27 05:16:14;;;;;;;4.80;2.07;;;4.80;99.90;;;;;;5051838;28;20262;-58
2023/01/27 05:18:41;;;;;;;4.73;1.90;;;4.80;99.90;;;;;;5052474;28;20203;-58
2023/01/27 05:21:11;;;;;;;5.37;2.30;;;5.30;99.90;;;;;;5052351;28;20200;-58
2023/01/27 05:23:36;;;;;;;4.63;2.10;;;4.80;99.90;;;;;;5034537;28;20180;-58
2023/01/27 05:26:11;;;;;;;4.07;2.17;;;4.90;99.90;;;;;;5052152;28;20185;-59
2023/01/27 05:28:40;;;;;;;4.73;2.33;;;5.20;99.90;;;;;;5052060;28;20204;-58
2023/01/27 05:31:17;;;;;;;4.93;2.13;;;4.90;99.90;;;;;;5051868;28;20209;-59
2023/01/27 05:33:43;;;;;;;3.80;2.20;;;4.90;99.90;;;;;;5051473;28;20228;-58
2023/01/27 05:36:12;;;;;;;6.93;2.30;;;4.90;99.90;;;;;;5047912;28;20221;-59
2023/01/27 05:38:38;;;;;;;5.93;2.33;;;4.90;99.90;;;;;;5051904;28;20181;-59
2023/01/27 05:41:06;;;;;;;5.87;2.43;;;4.90;99.90;;;;;;5032974;28;20283;-59
2023/01/27 05:43:33;;;;;;;4.30;2.40;;;4.90;99.90;;;;;;5051645;28;20272;-58
2023/01/27 05:46:17;;;;;;;7.50;2.50;;;4.80;99.90;;;;;;5051502;28;20721;-58
2023/01/27 05:48:45;;;;;;;5.60;2.70;;;4.80;99.90;;;;;;5051499;28;20269;-58
2023/01/27 05:51:13;;;;;;;7.83;2.80;;;4.80;99.90;;;;;;5051039;28;20185;-58
2023/01/27 05:53:38;;;;;;;8.00;2.90;;;4.70;99.90;;;;;;5051350;28;20332;-58
2023/01/27 05:56:05;;;;;;;7.10;2.90;;;4.90;99.90;;;;;;5051227;28;20347;-59
2023/01/27 05:58:31;;;;;;;6.97;2.93;;;4.60;99.90;;;;;;5051452;28;20639;-58
2023/01/27 06:01:08;;;;;;;3.53;2.37;;;4.40;99.90;;;;;;5051597;28;20247;-58
2023/01/27 06:03:34;;;;;;;6.33;2.60;;;4.50;99.90;;;;;;5050623;28;20718;-58
2023/01/27 06:05:59;;;;;;;7.80;3.00;;;4.50;99.90;;;;;;5050590;28;20264;-59
2023/01/27 06:08:26;;;;;;;5.63;3.07;;;4.40;99.90;;;;;;5051112;28;20189;-59
2023/01/27 06:10:52;;;;;;;6.13;3.10;;;4.60;99.90;;;;;;5051079;28;20177;-58
2023/01/27 06:13:20;;;;;;;7.63;2.93;;;4.60;99.90;;;;;;5051215;28;20173;-58
2023/01/27 06:15:47;;;;;;;6.17;3.30;;;;;;;;;;5050654;28;20200;-58
2023/01/27 06:18:14;;;;;;;4.73;3.30;;;4.70;99.90;;;;;;5050910;28;20248;-58
2023/01/27 06:20:40;;;;;;;7.93;3.80;;;4.70;99.90;;;;;;5050989;28;20181;-59
2023/01/27 06:23:07;;;;;;;9.53;4.00;;;4.80;99.90;;;;;;5050757;28;20245;-57
2023/01/27 06:25:38;;;;;;;8.10;4.70;;;4.80;99.90;;;;;;5051040;28;20181;-56
2023/01/27 06:28:05;;;;;;;10.73;5.13;;;5.00;99.90;;;;;;5033203;28;20267;-58
2023/01/27 06:30:31;;;;;;;9.30;4.40;;;4.80;99.90;;;;;;5050887;28;20180;-58
2023/01/27 06:32:57;;;;;;;10.17;5.07;;;4.80;99.90;;;;;;5050429;28;20707;-58
2023/01/27 06:35:22;;;;;;;7.77;4.90;;;5.10;99.90;;;;;;5050206;28;20234;-58
2023/01/27 06:37:50;;;;;;;8.97;5.10;;;5.30;99.90;;;;;;5050877;28;20173;-58
2023/01/27 06:40:17;;;;;;;9.90;5.43;;;4.90;99.90;;;;;;5050734;28;20180;-58
2023/01/27 06:42:43;;;;;;;10.67;5.67;;;4.90;99.90;;;;;;5032614;28;20234;-57
2023/01/27 06:45:10;;;;;;;9.40;5.93;;;4.90;99.90;;;;;;5050277;28;20220;-57
2023/01/27 06:47:40;;;;;;;11.97;6.27;;;5.00;99.90;;;;;;5050706;28;20241;-57
2023/01/27 06:50:10;;;;;;;12.27;6.83;;;5.30;99.90;;;;;;5050253;28;20179;-57
2023/01/27 06:52:36;;;;;;;11.70;6.80;;;4.90;99.90;;;;;;5049509;28;20216;-57
2023/01/27 06:55:02;;;;;;;10.47;6.17;;;4.90;99.90;;;;;;5050030;28;20243;-57
2023/01/27 06:57:28;;;;;;;11.57;6.70;;;5.00;99.90;;;;;;5050258;28;20259;-57
2023/01/27 06:59:54;;;;;;;15.83;6.43;;;5.00;99.90;;;;;;5050432;28;20268;-57
2023/01/27 07:02:20;;;;;;;11.27;6.60;;;;;;;;;;5032089;28;20181;-57
2023/01/27 07:04:46;;;;;;;12.20;6.50;;;5.00;99.90;;;;;;5050270;28;20177;-57
2023/01/27 07:07:11;;;;;;;11.17;6.50;;;5.00;99.90;;;;;;5050227;28;20181;-57
2023/01/27 07:09:37;;;;;;;13.17;6.50;;;5.00;99.90;;;;;;5050308;28;20528;-57
2023/01/27 07:12:03;;;;;;;12.90;7.33;;;4.80;99.90;;;;;;5050515;28;20204;-57
2023/01/27 07:14:29;;;;;;;11.97;6.70;;;5.00;99.90;;;;;;5049976;28;20479;-57
2023/01/27 07:16:54;;;;;;;14.97;7.33;;;5.20;99.90;;;;;;5032290;28;20727;-57
2023/01/27 07:19:20;;;;;;;12.27;6.97;;;5.00;99.90;;;;;;5050182;28;20173;-57
2023/01/27 07:21:45;;;;;;;15.50;7.13;;;5.10;99.90;;;;;;5050254;28;20177;-57
2023/01/27 07:24:11;;;;;;;17.47;7.73;;;5.20;99.90;;;;;;5049862;28;20644;-57
2023/01/27 07:26:37;;;;;;;11.60;7.43;;;5.10;99.90;;;;;;5050143;28;20177;-57
2023/01/27 07:29:02;;;;;;;14.03;7.70;;;5.10;99.90;;;;;;5049959;28;20176;-57
2023/01/27 07:31:28;;;;;;;12.60;8.13;;;5.20;99.90;;;;;;5050256;28;20248;-57
2023/01/27 07:33:54;;;;;;;13.77;8.00;;;;;;;;;;5049495;28;20300;-57
2023/01/27 07:36:20;;;;;;;16.27;8.53;;;5.10;99.90;;;;;;5049942;28;20179;-57
2023/01/27 07:38:49;;;;;;;18.57;8.17;;;5.20;99.90;;;;;;5049681;28;20177;-57
2023/01/27 07:41:15;;;;;;;19.23;8.37;;;5.20;99.90;;;;;;5047981;28;20244;-57
2023/01/27 07:43:41;;;;;;;17.33;8.80;;;5.20;99.90;;;;;;5038603;28;20178;-57
2023/01/27 07:46:07;;;;;;;15.93;7.93;;;5.10;99.90;;;;;;5030245;28;20202;-57
2023/01/27 07:48:32;;;;;;;18.00;9.00;;;5.20;99.90;;;;;;5033870;28;20185;-57
2023/01/27 07:50:58;;;;;;;16.53;8.43;;;5.30;99.90;;;;;;5030343;28;20210;-57
2023/01/27 07:53:23;;;;;;;13.93;7.93;;;4.90;99.90;;;;;;5049552;28;20230;-57
2023/01/27 07:55:49;;;;;;;13.13;8.57;;;4.90;99.90;;;;;;5049025;28;20228;-55
2023/01/27 07:58:15;;;;;;;18.40;9.30;;;5.20;99.90;;;;;;5032041;28;20544;-56
2023/01/27 08:00:41;;;;;;;15.97;9.53;;;;;;;;;;5049146;28;20559;-56
2023/01/27 08:03:19;;;;;;;19.37;9.83;;;5.40;99.90;;;;;;5051188;28;20301;-56
2023/01/27 08:05:44;;;;;;;14.97;9.23;;;5.30;99.90;;;;;;5053489;28;20469;-56
2023/01/27 08:08:10;;;;;;;16.60;9.47;;;5.10;99.90;;;;;;5053395;28;20267;-55
2023/01/27 08:10:35;;;;;;;23.60;10.43;;;5.50;99.90;;;;;;5052582;28;20264;-56
2023/01/27 08:13:01;;;;;;;17.40;10.33;;;5.20;99.90;;;;;;5034691;28;20189;-56
2023/01/27 08:15:27;;;;;;;19.47;11.17;;;5.20;99.90;;;;;;5052750;28;20220;-56
2023/01/27 08:17:56;;;;;;;21.83;10.90;;;5.30;99.90;;;;;;5053229;28;20669;-56
2023/01/27 08:20:23;;;;;;;16.50;10.13;;;5.20;99.90;;;;;;5050269;28;20186;-56
2023/01/27 08:22:48;;;;;;;16.27;9.80;;;5.20;99.90;;;;;;5047373;28;20185;-57
2023/01/27 08:25:14;;;;;;;16.67;10.37;;;5.20;99.90;;;;;;5053231;28;20539;-56
2023/01/27 08:27:40;;;;;;;17.90;11.07;;;5.20;99.90;;;;;;5053077;28;20655;-56
2023/01/27 08:30:06;;;;;;;16.90;10.93;;;5.20;99.90;;;;;;5053027;28;20223;-56
2023/01/27 08:32:33;;;;;;;17.90;10.53;;;5.60;99.90;;;;;;5052870;28;20224;-56
2023/01/27 08:34:58;;;;;;;17.33;10.70;;;5.30;99.90;;;;;;5053004;28;20288;-56
2023/01/27 08:37:24;;;;;;;20.83;10.73;;;5.10;99.90;;;;;;5053206;28;20201;-55
2023/01/27 08:39:50;;;;;;;20.63;10.73;;;5.20;99.90;;;;;;5052795;28;20244;-55
2023/01/27 08:42:15;;;;;;;21.70;11.23;;;5.10;99.90;;;;;;5052496;28;20239;-55
2023/01/27 08:44:41;;;;;;;18.87;10.83;;;5.30;99.90;;;;;;5052766;28;20177;-55
2023/01/27 08:47:06;;;;;;;23.07;10.00;;;5.10;99.90;;;;;;5034945;28;20648;-55
2023/01/27 08:49:32;;;;;;;17.60;10.63;;;5.30;99.90;;;;;;5052736;28;20182;-56
2023/01/27 08:51:58;;;;;;;17.67;10.27;;;5.40;99.90;;;;;;5052852;28;20181;-55
2023/01/27 08:54:23;;;;;;;16.97;10.27;;;5.20;99.90;;;;;;5052645;28;20197;-55
2023/01/27 08:56:49;;;;;;;16.23;10.73;;;5.20;99.90;;;;;;5052857;28;20185;-56
2023/01/27 08:59:15;;;;;;;17.87;10.33;;;5.30;99.90;;;;;;5052741;28;20291;-56
2023/01/27 09:01:40;;;;;;;16.33;9.27;;;5.40;99.90;;;;;;5052889;28;20311;-56
2023/01/27 09:04:06;;;;;;;17.43;10.33;;;5.40;99.90;;;;;;5052730;28;20644;-56
2023/01/27 09:06:32;;;;;;;17.10;10.07;;;5.50;99.90;;;;;;5052653;28;20255;-56
2023/01/27 09:09:09;;;;;;;15.23;9.50;;;5.30;99.90;;;;;;5051554;28;20185;-56
2023/01/27 09:11:41;;;;;;;17.33;9.93;;;5.30;99.90;;;;;;5050370;28;20193;-57
2023/01/27 09:14:06;;;;;;;18.60;9.60;;;5.40;99.90;;;;;;5051490;28;20181;-57
2023/01/27 09:16:32;;;;;;;18.90;9.93;;;5.40;99.90;;;;;;5052052;28;20279;-57
2023/01/27 09:18:58;;;;;;;16.70;9.57;;;5.50;99.90;;;;;;5051842;28;20185;-56
2023/01/27 09:21:25;;;;;;;14.87;8.93;;;5.60;99.90;;;;;;5052449;28;20173;-56
2023/01/27 09:23:51;;;;;;;14.60;8.20;;;5.70;99.90;;;;;;5051873;28;20655;-57
2023/01/27 09:26:17;;;;;;;18.50;8.60;;;5.60;99.90;;;;;;5052362;28;20200;-56
2023/01/27 09:28:42;;;;;;;17.57;9.57;;;5.60;99.90;;;;;;5051819;28;20221;-56
2023/01/27 09:31:08;;;;;;;17.97;8.70;;;5.70;99.90;;;;;;5050979;28;20178;-56
2023/01/27 09:33:35;;;;;;;16.60;8.70;;;5.70;99.90;;;;;;5051108;28;20256;-56
2023/01/27 09:36:08;;;;;;;17.30;8.80;;;5.60;99.90;;;;;;5051798;28;20205;-57
2023/01/27 09:38:36;;;;;;;25.27;9.70;;;5.40;99.90;;;;;;5051239;28;20180;-56
2023/01/27 09:41:20;;;;;;;17.53;10.23;;;5.60;99.90;;;;;;5051487;28;20170;-56
2023/01/27 09:44:04;;;;;;;14.03;8.23;;;5.70;99.90;;;;;;5049861;28;20203;-56
2023/01/27 09:46:49;;;;;;;15.73;8.67;;;5.70;99.90;;;;;;5051792;28;20191;-56
2023/01/27 09:49:47;;;;;;;16.30;9.00;;;5.80;99.90;;;;;;5051707;28;20178;-57
2023/01/27 09:52:18;;;;;;;17.00;9.53;;;5.90;99.90;;;;;;5047457;28;20192;-56
2023/01/27 09:55:07;;;;;;;16.30;10.10;;;5.90;99.90;;;;;;5051624;28;20285;-55
2023/01/27 09:57:47;;;;;;;17.33;9.33;;;5.90;99.90;;;;;;5051662;28;20168;-56
2023/01/27 10:00:31;;;;;;;18.33;10.07;;;5.90;99.90;;;;;;5051376;28;20242;-56
2023/01/27 10:02:57;;;;;;;14.97;9.77;;;5.80;99.90;;;;;;5051332;28;20538;-55
2023/01/27 10:06:00;;;;;;;20.90;10.27;;;6.00;99.90;;;;;;5050924;28;20209;-55
2023/01/27 10:08:58;;;;;;;18.27;11.27;;;6.00;99.90;;;;;;5031408;28;20205;-55
2023/01/27 10:11:35;;;;;;;137.37;54.70;;;6.40;99.90;;;;;;5031369;28;20181;-55
2023/01/27 10:14:29;;;;;;;117.10;48.13;;;5.90;99.90;;;;;;5031164;28;20255;-55
2023/01/27 10:17:28;;;;;;;75.10;33.53;;;6.00;99.90;;;;;;5024194;28;20192;-55
2023/01/27 10:20:12;;;;;;;230.57;99.23;;;5.80;99.90;;;;;;4997901;28;20186;-56
2023/01/27 10:22:38;;;;;;;77.00;34.97;;;5.90;99.90;;;;;;5043284;28;20200;-55
2023/01/27 10:25:22;;;;;;;122.93;42.83;;;6.10;99.90;;;;;;5050870;28;20648;-55
2023/01/27 10:27:52;;;;;;;17.80;10.33;;;6.10;99.90;;;;;;5051079;28;20169;-55
2023/01/27 10:30:33;;;;;;;35.57;16.73;;;6.20;99.90;;;;;;5050847;28;20166;-55
2023/01/27 10:32:58;;;;;;;41.40;20.40;;;;;;;;;;5050748;28;20223;-55
2023/01/27 10:36:08;;;;;;;18.53;9.70;;;6.40;99.90;;;;;;5051102;28;20204;-55
2023/01/27 10:38:59;;;;;;;19.57;9.80;;;6.50;99.90;;;;;;5023936;28;20184;-55
2023/01/27 10:41:28;;;;;;;17.70;9.93;;;6.50;99.90;;;;;;5015299;28;20220;-55
2023/01/27 10:44:12;;;;;;;19.33;9.07;;;6.40;99.90;;;;;;5044104;28;20185;-55
2023/01/27 10:47:02;;;;;;;12.40;6.43;;;6.20;99.90;;;;;;5050631;28;20257;-56
2023/01/27 10:49:51;;;;;;;12.60;5.77;;;6.50;99.90;;;;;;5050645;28;20655;-56
2023/01/27 10:52:25;;;;;;;10.90;6.10;;;6.50;99.90;;;;;;5039749;28;20177;-55
2023/01/27 10:55:04;;;;;;;11.77;7.30;;;6.50;99.90;;;;;;5049892;28;20208;-55
2023/01/27 10:57:34;;;;;;;13.00;7.70;;;6.50;99.90;;;;;;5050812;28;20203;-55
2023/01/27 11:00:31;;;;;;;15.40;8.97;;;6.40;99.90;;;;;;5050339;28;20302;-55
2023/01/27 11:03:04;;;;;;;12.93;7.03;;;6.50;99.90;;;;;;5049864;28;20264;-55
2023/01/27 11:05:42;;;;;;;10.33;7.07;;;6.50;99.90;;;;;;5050064;28;20219;-55
2023/01/27 11:08:22;;;;;;;11.37;7.73;;;6.40;99.90;;;;;;5050284;28;20185;-55
2023/01/27 11:13:37;;;;;;;14.67;7.87;;;6.40;99.90;;;;;;5050676;28;20647;-55
2023/01/27 11:16:06;;;;;;;13.97;7.20;;;6.50;99.90;;;;;;5050478;28;20232;-56
2023/01/27 11:18:35;;;;;;;12.10;6.33;;;6.50;99.90;;;;;;5050528;28;20693;-55
2023/01/27 11:21:14;;;;;;;14.73;6.90;;;6.40;99.90;;;;;;5050570;28;20188;-56
2023/01/27 11:23:44;;;;;;;14.13;6.77;;;6.40;99.90;;;;;;5050466;28;20168;-56
2023/01/27 11:26:28;;;;;;;17.47;6.97;;;6.40;99.90;;;;;;5050611;28;20173;-56
2023/01/27 11:29:18;;;;;;;23.33;11.20;;;6.30;99.90;;;;;;5050385;28;20177;-55
2023/01/27 11:31:59;;;;;;;15.40;7.40;;;6.30;99.90;;;;;;5050433;28;20655;-55
2023/01/27 11:34:41;;;;;;;19.17;6.90;;;6.40;99.90;;;;;;5050564;28;20691;-55
2023/01/27 11:37:20;;;;;;;17.47;9.10;;;6.40;99.90;;;;;;5050320;28;20569;-56
2023/01/27 11:39:47;;;;;;;14.27;8.23;;;6.60;99.90;;;;;;5054584;28;20177;-56
2023/01/27 11:42:14;;;;;;;13.70;7.50;;;6.60;99.90;;;;;;5054309;28;20172;-56
2023/01/27 11:44:42;;;;;;;11.87;7.13;;;6.60;99.90;;;;;;5054324;28;20177;-56
2023/01/27 11:47:18;;;;;;;11.43;6.87;;;6.70;99.90;;;;;;5054334;28;20161;-56
2023/01/27 11:49:47;;;;;;;16.23;7.00;;;6.70;99.90;;;;;;5054291;28;20192;-55
2023/01/27 11:52:16;;;;;;;11.43;6.33;;;6.40;99.90;;;;;;5054088;28;20177;-55
2023/01/27 11:54:54;;;;;;;15.07;6.80;;;6.50;99.90;;;;;;5054069;28;20652;-56
2023/01/27 11:57:22;;;;;;;17.83;6.70;;;7.40;99.90;;;;;;5054078;28;20177;-56
2023/01/27 12:00:03;;;;;;;10.67;6.60;;;6.50;99.90;;;;;;5054122;28;20251;-56
2023/01/27 12:02:32;;;;;;;13.93;6.10;;;6.70;99.90;;;;;;5053817;28;20173;-55
2023/01/27 12:05:11;;;;;;;11.53;5.80;;;6.80;99.90;;;;;;5053850;28;20187;-55
2023/01/27 12:07:53;;;;;;;33.70;9.87;;;6.90;99.90;;;;;;5053788;28;20173;-55
2023/01/27 12:10:39;;;;;;;15.47;7.30;;;6.90;99.90;;;;;;5053816;28;20212;-55
2023/01/27 12:13:20;;;;;;;12.40;6.57;;;6.60;99.90;;;;;;5053822;28;20211;-55
2023/01/27 12:15:57;;;;;;;15.93;7.80;;;7.00;99.90;;;;;;5053594;28;20366;-56
2023/01/27 12:18:23;;;;;;;15.30;6.90;;;7.10;99.90;;;;;;5053620;28;20177;-55
2023/01/27 12:20:58;;;;;;;15.47;6.77;;;7.10;99.90;;;;;;5053280;28;20176;-55
2023/01/27 12:23:35;;;;;;;11.10;5.67;;;7.20;99.90;;;;;;5053645;28;20165;-55
2023/01/27 12:26:06;;;;;;;13.80;5.60;;;7.20;99.90;;;;;;5053493;28;20172;-55
2023/01/27 12:28:44;;;;;;;14.07;6.23;;;7.30;99.90;;;;;;5053146;28;20532;-55
2023/01/27 12:31:21;;;;;;;11.70;6.10;;;7.30;99.90;;;;;;5053847;28;20213;-56
2023/01/27 12:34:00;;;;;;;13.67;6.70;;;7.40;99.90;;;;;;5050911;28;20216;-56
2023/01/27 12:36:27;;;;;;;13.97;6.67;;;7.30;99.90;;;;;;5053235;28;20251;-56
2023/01/27 12:38:55;;;;;;;13.83;7.10;;;7.40;99.90;;;;;;5053304;28;20176;-55
2023/01/27 12:41:29;;;;;;;14.50;6.83;;;7.50;99.90;;;;;;5053341;28;20212;-55
2023/01/27 12:43:59;;;;;;;15.60;7.20;;;7.80;99.90;;;;;;5053220;28;20164;-58
2023/01/27 12:46:28;;;;;;;13.77;6.43;;;8.00;99.90;;;;;;5053200;28;20166;-58
2023/01/27 12:49:05;;;;;;;17.27;5.77;;;8.30;99.90;;;;;;5052711;28;20173;-58
2023/01/27 12:51:52;;;;;;;16.00;5.47;;;8.70;99.90;;;;;;5052933;28;20197;-58
2023/01/27 12:54:26;;;;;;;12.73;4.57;;;8.40;99.90;;;;;;5052793;28;20173;-58
2023/01/27 12:56:55;;;;;;;32.10;14.03;;;8.60;99.90;;;;;;5053025;28;20183;-56
2023/01/27 12:59:23;;;;;;;44.93;18.53;;;8.40;99.90;;;;;;5052861;28;20620;-56
2023/01/27 13:02:15;;;;;;;26.03;10.57;;;8.30;99.90;;;;;;5052869;28;20169;-56
2023/01/27 13:04:42;;;;;;;27.03;8.90;;;8.50;99.90;;;;;;5052820;28;20161;-58
2023/01/27 13:07:14;;;;;;;32.80;12.93;;;11.10;99.90;;;;;;5052914;28;20230;-58
2023/01/27 13:09:54;;;;;;;18.07;7.03;;;16.20;99.90;;;;;;5052203;28;20181;-58
2023/01/27 13:12:28;;;;;;;18.42;7.10;;;16.40;99.90;;;;;;5051556;28;20211;-59
2023/01/27 13:14:57;;;;;;;23.30;11.00;;;18.40;99.90;;;;;;5052673;28;20547;-59
2023/01/27 13:17:33;;;;;;;8.50;3.35;;;19.10;99.90;;;;;;5052555;28;20200;-59
2023/01/27 13:20:14;;;;;;;7.18;3.42;;;20.80;99.90;;;;;;5035803;28;20252;-60
2023/01/27 13:22:44;;;;;;;13.48;7.43;;;21.20;99.90;;;;;;5052422;28;20173;-59
2023/01/27 13:25:19;;;;;;;7.43;3.97;;;20.90;99.90;;;;;;5052007;28;20178;-59
2023/01/27 13:27:46;;;;;;;9.65;3.17;;;18.70;99.90;;;;;;5051679;28;20185;-57
2023/01/27 13:30:27;;;;;;;7.32;2.40;;;15.60;99.90;;;;;;5051956;28;20177;-57
2023/01/27 13:32:58;;;;;;;8.95;1.80;;;13.70;99.90;;;;;;5052065;28;20244;-59
2023/01/27 13:35:30;;;;;;;10.35;2.00;;;13.60;99.90;;;;;;5052155;28;20208;-59
2023/01/27 13:38:13;;;;;;;8.75;1.90;;;11.90;99.90;;;;;;5051407;28;20173;-59